sensor_id;sensor_type;location;lat;lon;timestamp;temperature;humidity
13898;DHT22;7019;50.766;4.474;2024-02-26T00:02:21;6.00;99.90
13898;DHT22;7019;50.766;4.474;2024-02-26T00:04:47;6.00;99.90
13898;DHT22;7019;50.766;4.474;2024-02-26T00:07:17;5.90;99.90
13898;DHT22;7019;50.766;4.474;2024-02-26T00:09:44;6.00;99.90
13898;DHT22;7019;50.766;4.474;2024-02-26T00:12:11;5.90;99.90
13898;DHT22;7019;50.766;4.474;2024-02-26T00:14:38;6.00;99.90
13898;DHT22;7019;50.766;4.474;2024-02-26T00:17:06;5.90;99.90
13898;DHT22;7019;50.766;4.474;2024-02-26T00:19:35;5.90;99.90
13898;DHT22;7019;50.766;4.474;2024-02-26T00:22:02;5.90;99.90
13898;DHT22;7019;50.766;4.474;2024-02-26T00:24:31;5.90;99.90
13898;DHT22;7019;50.766;4.474;2024-02-26T00:26:59;5.90;99.90
13898;DHT22;7019;50.766;4.474;2024-02-26T00:29:26;5.90;99.90
13898;DHT22;7019;50.766;4.474;2024-02-26T00:31:52;5.80;99.90
13898;DHT22;7019;50.766;4.474;2024-02-26T00:34:19;5.90;99.90
13898;DHT22;7019;50.766;4.474;2024-02-26T00:36:46;5.80;99.90
13898;DHT22;7019;50.766;4.474;2024-02-26T00:39:13;5.90;99.90
13898;DHT22;7019;50.766;4.474;2024-02-26T00:41:42;5.80;99.90
13898;DHT22;7019;50.766;4.474;2024-02-26T00:44:09;5.80;99.90
13898;DHT22;7019;50.766;4.474;2024-02-26T00:46:36;5.90;99.90
13898;DHT22;7019;50.766;4.474;2024-02-26T00:49:03;5.80;99.90
13898;DHT22;7019;50.766;4.474;2024-02-26T00:51:30;5.80;99.90
13898;DHT22;7019;50.766;4.474;2024-02-26T00:53:57;5.80;99.90
13898;DHT22;7019;50.766;4.474;2024-02-26T00:56:24;5.80;99.90
13898;DHT22;7019;50.766;4.474;2024-02-26T00:58:52;5.80;99.90
13898;DHT22;7019;50.766;4.474;2024-02-26T01:01:19;5.80;99.90
13898;DHT22;7019;50.766;4.474;2024-02-26T01:03:46;5.80;99.90
13898;DHT22;7019;50.766;4.474;2024-02-26T01:06:13;5.80;99.90
13898;DHT22;7019;50.766;4.474;2024-02-26T01:08:41;5.80;99.90
13898;DHT22;7019;50.766;4.474;2024-02-26T01:11:07;5.80;99.90
13898;DHT22;7019;50.766;4.474;2024-02-26T01:13:35;5.80;99.90
13898;DHT22;7019;50.766;4.474;2024-02-26T01:16:04;5.80;99.90
13898;DHT22;7019;50.766;4.474;2024-02-26T01:18:31;5.80;99.90
13898;DHT22;7019;50.766;4.474;2024-02-26T01:20:58;5.80;99.90
13898;DHT22;7019;50.766;4.474;2024-02-26T01:23:25;5.80;99.90
13898;DHT22;7019;50.766;4.474;2024-02-26T01:25:52;5.80;99.90
13898;DHT22;7019;50.766;4.474;2024-02-26T01:28:19;5.80;99.90
13898;DHT22;7019;50.766;4.474;2024-02-26T01:30:46;5.80;99.90
13898;DHT22;7019;50.766;4.474;2024-02-26T01:33:14;5.70;99.90
13898;DHT22;7019;50.766;4.474;2024-02-26T01:35:42;5.70;99.90
13898;DHT22;7019;50.766;4.474;2024-02-26T01:38:09;5.70;99.90
13898;DHT22;7019;50.766;4.474;2024-02-26T01:40:36;5.70;99.90
13898;DHT22;7019;50.766;4.474;2024-02-26T01:43:03;5.70;99.90
13898;DHT22;7019;50.766;4.474;2024-02-26T01:45:30;5.70;99.90
13898;DHT22;7019;50.766;4.474;2024-02-26T01:47:57;5.70;99.90
13898;DHT22;7019;50.766;4.474;2024-02-26T01:50:26;5.70;99.90
13898;DHT22;7019;50.766;4.474;2024-02-26T01:52:54;5.70;99.90
13898;DHT22;7019;50.766;4.474;2024-02-26T01:55:24;5.70;99.90
13898;DHT22;7019;50.766;4.474;2024-02-26T01:57:51;5.70;99.90
13898;DHT22;7019;50.766;4.474;2024-02-26T02:00:20;5.70;99.90
13898;DHT22;7019;50.766;4.474;2024-02-26T02:02:48;5.70;99.90
13898;DHT22;7019;50.766;4.474;2024-02-26T02:05:15;5.70;99.90
13898;DHT22;7019;50.766;4.474;2024-02-26T02:07:44;5.70;99.90
13898;DHT22;7019;50.766;4.474;2024-02-26T02:10:12;5.70;99.90
13898;DHT22;7019;50.766;4.474;2024-02-26T02:12:39;5.70;99.90
13898;DHT22;7019;50.766;4.474;2024-02-26T02:15:07;5.70;99.90
13898;DHT22;7019;50.766;4.474;2024-02-26T02:17:35;5.70;99.90
13898;DHT22;7019;50.766;4.474;2024-02-26T02:20:02;5.70;99.90
13898;DHT22;7019;50.766;4.474;2024-02-26T02:22:31;5.70;99.90
13898;DHT22;7019;50.766;4.474;2024-02-26T02:24:59;5.70;99.90
13898;DHT22;7019;50.766;4.474;2024-02-26T02:27:26;5.70;99.90
13898;DHT22;7019;50.766;4.474;2024-02-26T02:29:54;5.70;99.90
13898;DHT22;7019;50.766;4.474;2024-02-26T02:32:21;5.70;99.90
13898;DHT22;7019;50.766;4.474;2024-02-26T02:34:49;5.70;99.90
13898;DHT22;7019;50.766;4.474;2024-02-26T02:37:16;5.70;99.90
13898;DHT22;7019;50.766;4.474;2024-02-26T02:39:45;5.70;99.90
13898;DHT22;7019;50.766;4.474;2024-02-26T02:42:12;5.70;99.90
13898;DHT22;7019;50.766;4.474;2024-02-26T02:44:39;5.70;99.90
13898;DHT22;7019;50.766;4.474;2024-02-26T02:47:06;5.60;99.90
13898;DHT22;7019;50.766;4.474;2024-02-26T02:49:33;5.70;99.90
13898;DHT22;7019;50.766;4.474;2024-02-26T02:52:00;5.70;99.90
13898;DHT22;7019;50.766;4.474;2024-02-26T02:54:27;5.70;99.90
13898;DHT22;7019;50.766;4.474;2024-02-26T02:56:56;5.70;99.90
13898;DHT22;7019;50.766;4.474;2024-02-26T02:59:23;5.70;99.90
13898;DHT22;7019;50.766;4.474;2024-02-26T03:01:49;5.70;99.90
13898;DHT22;7019;50.766;4.474;2024-02-26T03:04:17;5.70;99.90
13898;DHT22;7019;50.766;4.474;2024-02-26T03:06:44;5.60;99.90
13898;DHT22;7019;50.766;4.474;2024-02-26T03:09:11;5.70;99.90
13898;DHT22;7019;50.766;4.474;2024-02-26T03:11:38;5.70;99.90
13898;DHT22;7019;50.766;4.474;2024-02-26T03:14:07;5.70;99.90
13898;DHT22;7019;50.766;4.474;2024-02-26T03:16:35;5.70;99.90
13898;DHT22;7019;50.766;4.474;2024-02-26T03:19:02;5.60;99.90
13898;DHT22;7019;50.766;4.474;2024-02-26T03:21:29;5.60;99.90
13898;DHT22;7019;50.766;4.474;2024-02-26T03:23:56;5.60;99.90
13898;DHT22;7019;50.766;4.474;2024-02-26T03:26:24;5.60;99.90
13898;DHT22;7019;50.766;4.474;2024-02-26T03:28:51;5.60;99.90
13898;DHT22;7019;50.766;4.474;2024-02-26T03:31:19;5.60;99.90
13898;DHT22;7019;50.766;4.474;2024-02-26T03:33:47;5.60;99.90
13898;DHT22;7019;50.766;4.474;2024-02-26T03:36:14;5.60;99.90
13898;DHT22;7019;50.766;4.474;2024-02-26T03:38:42;5.60;99.90
13898;DHT22;7019;50.766;4.474;2024-02-26T03:41:09;5.50;99.90
13898;DHT22;7019;50.766;4.474;2024-02-26T03:43:36;5.60;99.90
13898;DHT22;7019;50.766;4.474;2024-02-26T03:46:03;5.60;99.90
13898;DHT22;7019;50.766;4.474;2024-02-26T03:48:31;5.60;99.90
13898;DHT22;7019;50.766;4.474;2024-02-26T03:50:58;5.60;99.90
13898;DHT22;7019;50.766;4.474;2024-02-26T03:53:26;5.60;99.90
13898;DHT22;7019;50.766;4.474;2024-02-26T03:55:53;5.50;99.90
13898;DHT22;7019;50.766;4.474;2024-02-26T03:58:21;5.60;99.90
13898;DHT22;7019;50.766;4.474;2024-02-26T04:00:48;5.50;99.90
13898;DHT22;7019;50.766;4.474;2024-02-26T04:03:15;5.50;99.90
13898;DHT22;7019;50.766;4.474;2024-02-26T04:05:43;5.50;99.90
13898;DHT22;7019;50.766;4.474;2024-02-26T04:08:10;5.50;99.90
13898;DHT22;7019;50.766;4.474;2024-02-26T04:10:37;5.50;99.90
13898;DHT22;7019;50.766;4.474;2024-02-26T04:13:05;5.50;99.90
13898;DHT22;7019;50.766;4.474;2024-02-26T04:15:32;5.50;99.90
13898;DHT22;7019;50.766;4.474;2024-02-26T04:17:59;5.50;99.90
13898;DHT22;7019;50.766;4.474;2024-02-26T04:20:26;5.50;99.90
13898;DHT22;7019;50.766;4.474;2024-02-26T04:22:54;5.60;99.90
13898;DHT22;7019;50.766;4.474;2024-02-26T04:25:21;5.50;99.90
13898;DHT22;7019;50.766;4.474;2024-02-26T04:27:48;5.50;99.90
13898;DHT22;7019;50.766;4.474;2024-02-26T04:30:15;5.50;99.90
13898;DHT22;7019;50.766;4.474;2024-02-26T04:32:43;5.50;99.90
13898;DHT22;7019;50.766;4.474;2024-02-26T04:35:10;5.50;99.90
13898;DHT22;7019;50.766;4.474;2024-02-26T04:37:37;5.50;99.90
13898;DHT22;7019;50.766;4.474;2024-02-26T04:40:07;5.50;99.90
13898;DHT22;7019;50.766;4.474;2024-02-26T04:42:34;5.50;99.90
13898;DHT22;7019;50.766;4.474;2024-02-26T04:45:01;5.60;99.90
13898;DHT22;7019;50.766;4.474;2024-02-26T04:47:28;5.60;99.90
13898;DHT22;7019;50.766;4.474;2024-02-26T04:49:56;5.60;99.90
13898;DHT22;7019;50.766;4.474;2024-02-26T04:52:23;5.50;99.90
13898;DHT22;7019;50.766;4.474;2024-02-26T04:54:50;5.50;99.90
13898;DHT22;7019;50.766;4.474;2024-02-26T04:57:18;5.50;99.90
13898;DHT22;7019;50.766;4.474;2024-02-26T04:59:45;5.50;99.90
13898;DHT22;7019;50.766;4.474;2024-02-26T05:02:13;5.50;99.90
13898;DHT22;7019;50.766;4.474;2024-02-26T05:04:40;5.50;99.90
13898;DHT22;7019;50.766;4.474;2024-02-26T05:07:07;5.50;99.90
13898;DHT22;7019;50.766;4.474;2024-02-26T05:09:34;5.50;99.90
13898;DHT22;7019;50.766;4.474;2024-02-26T05:12:02;5.50;99.90
13898;DHT22;7019;50.766;4.474;2024-02-26T05:14:30;5.50;99.90
13898;DHT22;7019;50.766;4.474;2024-02-26T05:16:57;5.50;99.90
13898;DHT22;7019;50.766;4.474;2024-02-26T05:19:24;5.50;99.90
13898;DHT22;7019;50.766;4.474;2024-02-26T05:21:51;5.50;99.90
13898;DHT22;7019;50.766;4.474;2024-02-26T05:24:18;5.50;99.90
13898;DHT22;7019;50.766;4.474;2024-02-26T05:26:48;5.50;99.90
13898;DHT22;7019;50.766;4.474;2024-02-26T05:29:15;5.50;99.90
13898;DHT22;7019;50.766;4.474;2024-02-26T05:31:43;5.50;99.90
13898;DHT22;7019;50.766;4.474;2024-02-26T05:34:10;5.50;99.90
13898;DHT22;7019;50.766;4.474;2024-02-26T05:36:37;5.50;99.90
13898;DHT22;7019;50.766;4.474;2024-02-26T05:39:05;5.50;99.90
13898;DHT22;7019;50.766;4.474;2024-02-26T05:41:32;5.50;99.90
13898;DHT22;7019;50.766;4.474;2024-02-26T05:43:59;5.50;99.90
13898;DHT22;7019;50.766;4.474;2024-02-26T05:46:26;5.50;99.90
13898;DHT22;7019;50.766;4.474;2024-02-26T05:48:55;5.50;99.90
13898;DHT22;7019;50.766;4.474;2024-02-26T05:51:22;5.50;99.90
13898;DHT22;7019;50.766;4.474;2024-02-26T05:53:49;5.50;99.90
13898;DHT22;7019;50.766;4.474;2024-02-26T05:56:20;5.50;99.90
13898;DHT22;7019;50.766;4.474;2024-02-26T05:58:47;5.40;99.90
13898;DHT22;7019;50.766;4.474;2024-02-26T06:01:15;5.50;99.90
13898;DHT22;7019;50.766;4.474;2024-02-26T06:03:42;5.40;99.90
13898;DHT22;7019;50.766;4.474;2024-02-26T06:06:11;5.50;99.90
13898;DHT22;7019;50.766;4.474;2024-02-26T06:08:38;5.50;99.90
13898;DHT22;7019;50.766;4.474;2024-02-26T06:11:06;5.50;99.90
13898;DHT22;7019;50.766;4.474;2024-02-26T06:13:33;5.50;99.90
13898;DHT22;7019;50.766;4.474;2024-02-26T06:16:00;5.50;99.90
13898;DHT22;7019;50.766;4.474;2024-02-26T06:18:28;5.50;99.90
13898;DHT22;7019;50.766;4.474;2024-02-26T06:20:55;5.50;99.90
13898;DHT22;7019;50.766;4.474;2024-02-26T06:23:23;5.50;99.90
13898;DHT22;7019;50.766;4.474;2024-02-26T06:25:50;5.50;99.90
13898;DHT22;7019;50.766;4.474;2024-02-26T06:28:17;5.50;99.90
13898;DHT22;7019;50.766;4.474;2024-02-26T06:30:45;5.50;99.90
13898;DHT22;7019;50.766;4.474;2024-02-26T06:33:12;5.50;99.90
13898;DHT22;7019;50.766;4.474;2024-02-26T06:35:39;5.50;99.90
13898;DHT22;7019;50.766;4.474;2024-02-26T06:38:07;5.50;99.90
13898;DHT22;7019;50.766;4.474;2024-02-26T06:40:36;5.50;99.90
13898;DHT22;7019;50.766;4.474;2024-02-26T06:43:04;5.50;99.90
13898;DHT22;7019;50.766;4.474;2024-02-26T06:45:31;5.50;99.90
13898;DHT22;7019;50.766;4.474;2024-02-26T06:47:58;5.50;99.90
13898;DHT22;7019;50.766;4.474;2024-02-26T06:50:26;5.50;99.90
13898;DHT22;7019;50.766;4.474;2024-02-26T06:52:53;5.50;99.90
13898;DHT22;7019;50.766;4.474;2024-02-26T06:55:20;5.50;99.90
13898;DHT22;7019;50.766;4.474;2024-02-26T06:57:48;5.50;99.90
13898;DHT22;7019;50.766;4.474;2024-02-26T07:00:16;5.50;99.90
13898;DHT22;7019;50.766;4.474;2024-02-26T07:02:43;5.50;99.90
13898;DHT22;7019;50.766;4.474;2024-02-26T07:05:10;5.50;99.90
13898;DHT22;7019;50.766;4.474;2024-02-26T07:07:38;5.40;99.90
13898;DHT22;7019;50.766;4.474;2024-02-26T07:10:06;5.40;99.90
13898;DHT22;7019;50.766;4.474;2024-02-26T07:12:33;5.40;99.90
13898;DHT22;7019;50.766;4.474;2024-02-26T07:15:02;5.40;99.90
13898;DHT22;7019;50.766;4.474;2024-02-26T07:17:29;5.40;99.90
13898;DHT22;7019;50.766;4.474;2024-02-26T07:19:56;5.40;99.90
13898;DHT22;7019;50.766;4.474;2024-02-26T07:22:23;5.40;99.90
13898;DHT22;7019;50.766;4.474;2024-02-26T07:24:51;5.40;99.90
13898;DHT22;7019;50.766;4.474;2024-02-26T07:27:18;5.40;99.90
13898;DHT22;7019;50.766;4.474;2024-02-26T07:29:47;5.40;99.90
13898;DHT22;7019;50.766;4.474;2024-02-26T07:32:15;5.40;99.90
13898;DHT22;7019;50.766;4.474;2024-02-26T07:34:42;5.40;99.90
13898;DHT22;7019;50.766;4.474;2024-02-26T07:37:10;5.40;99.90
13898;DHT22;7019;50.766;4.474;2024-02-26T07:39:37;5.40;99.90
13898;DHT22;7019;50.766;4.474;2024-02-26T07:42:05;5.40;99.90
13898;DHT22;7019;50.766;4.474;2024-02-26T07:44:32;5.40;99.90
13898;DHT22;7019;50.766;4.474;2024-02-26T07:47:00;5.40;99.90
13898;DHT22;7019;50.766;4.474;2024-02-26T07:49:27;5.40;99.90
13898;DHT22;7019;50.766;4.474;2024-02-26T07:51:54;5.40;99.90
13898;DHT22;7019;50.766;4.474;2024-02-26T07:54:23;5.40;99.90
13898;DHT22;7019;50.766;4.474;2024-02-26T07:56:50;5.40;99.90
13898;DHT22;7019;50.766;4.474;2024-02-26T07:59:18;5.40;99.90
13898;DHT22;7019;50.766;4.474;2024-02-26T08:01:49;5.40;99.90
13898;DHT22;7019;50.766;4.474;2024-02-26T08:04:17;5.30;99.90
13898;DHT22;7019;50.766;4.474;2024-02-26T08:06:45;5.40;99.90
13898;DHT22;7019;50.766;4.474;2024-02-26T08:09:13;5.30;99.90
13898;DHT22;7019;50.766;4.474;2024-02-26T08:11:40;5.30;99.90
13898;DHT22;7019;50.766;4.474;2024-02-26T08:14:07;5.40;99.90
13898;DHT22;7019;50.766;4.474;2024-02-26T08:16:34;5.40;99.90
13898;DHT22;7019;50.766;4.474;2024-02-26T08:19:01;5.30;99.90
13898;DHT22;7019;50.766;4.474;2024-02-26T08:21:28;5.30;99.90
13898;DHT22;7019;50.766;4.474;2024-02-26T08:23:57;5.30;99.90
13898;DHT22;7019;50.766;4.474;2024-02-26T08:26:24;5.30;99.90
13898;DHT22;7019;50.766;4.474;2024-02-26T08:28:51;5.30;99.90
13898;DHT22;7019;50.766;4.474;2024-02-26T08:31:20;5.30;99.90
13898;DHT22;7019;50.766;4.474;2024-02-26T08:33:47;5.30;99.90
13898;DHT22;7019;50.766;4.474;2024-02-26T08:36:14;5.30;99.90
13898;DHT22;7019;50.766;4.474;2024-02-26T08:38:41;5.30;99.90
13898;DHT22;7019;50.766;4.474;2024-02-26T08:41:10;5.40;99.90
13898;DHT22;7019;50.766;4.474;2024-02-26T08:43:37;5.30;99.90
13898;DHT22;7019;50.766;4.474;2024-02-26T08:46:04;5.30;99.90
13898;DHT22;7019;50.766;4.474;2024-02-26T08:48:31;5.30;99.90
13898;DHT22;7019;50.766;4.474;2024-02-26T08:50:58;5.40;99.90
13898;DHT22;7019;50.766;4.474;2024-02-26T08:53:25;5.40;99.90
13898;DHT22;7019;50.766;4.474;2024-02-26T08:55:52;5.40;99.90
13898;DHT22;7019;50.766;4.474;2024-02-26T08:58:21;5.40;99.90
13898;DHT22;7019;50.766;4.474;2024-02-26T09:00:48;5.40;99.90
13898;DHT22;7019;50.766;4.474;2024-02-26T09:03:15;5.40;99.90
13898;DHT22;7019;50.766;4.474;2024-02-26T09:05:42;5.40;99.90
13898;DHT22;7019;50.766;4.474;2024-02-26T09:08:09;5.30;99.90
13898;DHT22;7019;50.766;4.474;2024-02-26T09:10:36;5.30;99.90
13898;DHT22;7019;50.766;4.474;2024-02-26T09:13:03;5.40;99.90
13898;DHT22;7019;50.766;4.474;2024-02-26T09:15:32;5.40;99.90
13898;DHT22;7019;50.766;4.474;2024-02-26T09:17:59;5.40;99.90
13898;DHT22;7019;50.766;4.474;2024-02-26T09:20:27;5.40;99.90
13898;DHT22;7019;50.766;4.474;2024-02-26T09:22:54;5.40;99.90
13898;DHT22;7019;50.766;4.474;2024-02-26T09:25:21;5.40;99.90
13898;DHT22;7019;50.766;4.474;2024-02-26T09:27:48;5.40;99.90
13898;DHT22;7019;50.766;4.474;2024-02-26T09:30:16;5.40;99.90
13898;DHT22;7019;50.766;4.474;2024-02-26T09:32:47;5.40;99.90
13898;DHT22;7019;50.766;4.474;2024-02-26T09:35:14;5.40;99.90
13898;DHT22;7019;50.766;4.474;2024-02-26T09:37:42;5.50;99.90
13898;DHT22;7019;50.766;4.474;2024-02-26T09:40:10;5.50;99.90
13898;DHT22;7019;50.766;4.474;2024-02-26T09:42:43;5.50;99.90
13898;DHT22;7019;50.766;4.474;2024-02-26T09:45:12;5.50;99.90
13898;DHT22;7019;50.766;4.474;2024-02-26T09:47:42;5.50;99.90
13898;DHT22;7019;50.766;4.474;2024-02-26T09:50:12;5.50;99.90
13898;DHT22;7019;50.766;4.474;2024-02-26T09:52:41;5.50;99.90
13898;DHT22;7019;50.766;4.474;2024-02-26T09:55:09;5.50;99.90
13898;DHT22;7019;50.766;4.474;2024-02-26T09:57:37;5.50;99.90
13898;DHT22;7019;50.766;4.474;2024-02-26T10:00:08;5.50;99.90
13898;DHT22;7019;50.766;4.474;2024-02-26T10:02:38;5.50;99.90
13898;DHT22;7019;50.766;4.474;2024-02-26T10:05:08;5.50;99.90
13898;DHT22;7019;50.766;4.474;2024-02-26T10:07:38;5.50;99.90
13898;DHT22;7019;50.766;4.474;2024-02-26T10:10:06;5.50;99.90
13898;DHT22;7019;50.766;4.474;2024-02-26T10:12:33;5.50;99.90
13898;DHT22;7019;50.766;4.474;2024-02-26T10:15:00;5.50;99.90
13898;DHT22;7019;50.766;4.474;2024-02-26T10:17:28;5.50;99.90
13898;DHT22;7019;50.766;4.474;2024-02-26T10:19:55;5.50;99.90
13898;DHT22;7019;50.766;4.474;2024-02-26T10:22:38;5.50;99.90
13898;DHT22;7019;50.766;4.474;2024-02-26T10:25:05;5.50;99.90
13898;DHT22;7019;50.766;4.474;2024-02-26T10:27:34;5.50;99.90
13898;DHT22;7019;50.766;4.474;2024-02-26T10:30:03;5.40;99.90
13898;DHT22;7019;50.766;4.474;2024-02-26T10:32:30;5.50;99.90
13898;DHT22;7019;50.766;4.474;2024-02-26T10:34:58;5.50;99.90
13898;DHT22;7019;50.766;4.474;2024-02-26T10:37:25;5.40;99.90
13898;DHT22;7019;50.766;4.474;2024-02-26T10:39:54;5.40;99.90
13898;DHT22;7019;50.766;4.474;2024-02-26T10:42:21;5.40;99.90
13898;DHT22;7019;50.766;4.474;2024-02-26T10:44:48;5.40;99.90
13898;DHT22;7019;50.766;4.474;2024-02-26T10:47:15;5.40;99.90
13898;DHT22;7019;50.766;4.474;2024-02-26T10:49:46;5.40;99.90
13898;DHT22;7019;50.766;4.474;2024-02-26T10:52:14;5.40;99.90
13898;DHT22;7019;50.766;4.474;2024-02-26T10:54:42;5.40;99.90
13898;DHT22;7019;50.766;4.474;2024-02-26T10:57:15;5.40;99.90
13898;DHT22;7019;50.766;4.474;2024-02-26T10:59:42;5.40;99.90
13898;DHT22;7019;50.766;4.474;2024-02-26T11:02:11;5.40;99.90
13898;DHT22;7019;50.766;4.474;2024-02-26T11:04:40;5.40;99.90
13898;DHT22;7019;50.766;4.474;2024-02-26T11:07:09;5.40;99.90
13898;DHT22;7019;50.766;4.474;2024-02-26T11:09:36;5.40;99.90
13898;DHT22;7019;50.766;4.474;2024-02-26T11:12:08;5.50;99.90
13898;DHT22;7019;50.766;4.474;2024-02-26T11:14:40;5.50;99.90
13898;DHT22;7019;50.766;4.474;2024-02-26T11:17:09;5.40;99.90
13898;DHT22;7019;50.766;4.474;2024-02-26T11:19:38;5.40;99.90
13898;DHT22;7019;50.766;4.474;2024-02-26T11:22:06;5.40;99.90
13898;DHT22;7019;50.766;4.474;2024-02-26T11:24:33;5.40;99.90
13898;DHT22;7019;50.766;4.474;2024-02-26T11:27:06;5.40;99.90
13898;DHT22;7019;50.766;4.474;2024-02-26T11:29:37;5.40;99.90
13898;DHT22;7019;50.766;4.474;2024-02-26T11:32:07;5.40;99.90
13898;DHT22;7019;50.766;4.474;2024-02-26T11:34:34;5.30;99.90
13898;DHT22;7019;50.766;4.474;2024-02-26T11:37:09;5.30;99.90
13898;DHT22;7019;50.766;4.474;2024-02-26T11:39:37;5.30;99.90
13898;DHT22;7019;50.766;4.474;2024-02-26T11:42:08;5.30;99.90
13898;DHT22;7019;50.766;4.474;2024-02-26T11:44:36;5.40;99.90
13898;DHT22;7019;50.766;4.474;2024-02-26T11:47:18;5.40;99.90
13898;DHT22;7019;50.766;4.474;2024-02-26T11:49:45;5.40;99.90
13898;DHT22;7019;50.766;4.474;2024-02-26T11:52:14;5.40;99.90
13898;DHT22;7019;50.766;4.474;2024-02-26T11:54:44;5.30;99.90
13898;DHT22;7019;50.766;4.474;2024-02-26T11:57:25;5.40;99.90
13898;DHT22;7019;50.766;4.474;2024-02-26T11:59:53;5.50;99.90
13898;DHT22;7019;50.766;4.474;2024-02-26T12:02:44;5.50;99.90
13898;DHT22;7019;50.766;4.474;2024-02-26T12:05:14;5.40;99.90
13898;DHT22;7019;50.766;4.474;2024-02-26T12:07:44;5.40;99.90
13898;DHT22;7019;50.766;4.474;2024-02-26T12:10:33;5.50;99.90
13898;DHT22;7019;50.766;4.474;2024-02-26T12:13:04;5.50;99.90
13898;DHT22;7019;50.766;4.474;2024-02-26T12:15:34;5.50;99.90
13898;DHT22;7019;50.766;4.474;2024-02-26T12:18:05;5.50;99.90
13898;DHT22;7019;50.766;4.474;2024-02-26T12:20:33;5.50;99.90
13898;DHT22;7019;50.766;4.474;2024-02-26T12:23:02;5.50;99.90
13898;DHT22;7019;50.766;4.474;2024-02-26T12:25:30;5.50;99.90
13898;DHT22;7019;50.766;4.474;2024-02-26T12:27:57;5.50;99.90
13898;DHT22;7019;50.766;4.474;2024-02-26T12:30:25;5.40;99.90
13898;DHT22;7019;50.766;4.474;2024-02-26T12:32:53;5.40;99.90
13898;DHT22;7019;50.766;4.474;2024-02-26T12:35:24;5.40;99.90
13898;DHT22;7019;50.766;4.474;2024-02-26T12:37:52;5.40;99.90
13898;DHT22;7019;50.766;4.474;2024-02-26T12:40:20;5.40;99.90
13898;DHT22;7019;50.766;4.474;2024-02-26T12:42:47;5.40;99.90
13898;DHT22;7019;50.766;4.474;2024-02-26T12:45:15;5.30;99.90
13898;DHT22;7019;50.766;4.474;2024-02-26T12:47:43;5.30;99.90
13898;DHT22;7019;50.766;4.474;2024-02-26T12:50:11;5.30;99.90
13898;DHT22;7019;50.766;4.474;2024-02-26T12:52:43;5.30;99.90
13898;DHT22;7019;50.766;4.474;2024-02-26T12:55:13;5.20;99.90
13898;DHT22;7019;50.766;4.474;2024-02-26T12:57:42;5.30;99.90
13898;DHT22;7019;50.766;4.474;2024-02-26T13:00:13;5.30;99.90
13898;DHT22;7019;50.766;4.474;2024-02-26T13:02:41;5.30;99.90
13898;DHT22;7019;50.766;4.474;2024-02-26T13:05:11;5.30;99.90
13898;DHT22;7019;50.766;4.474;2024-02-26T13:07:42;5.30;99.90
13898;DHT22;7019;50.766;4.474;2024-02-26T13:10:10;5.30;99.90
13898;DHT22;7019;50.766;4.474;2024-02-26T13:12:43;5.30;99.90
13898;DHT22;7019;50.766;4.474;2024-02-26T13:15:16;5.30;99.90
13898;DHT22;7019;50.766;4.474;2024-02-26T13:17:43;5.30;99.90
13898;DHT22;7019;50.766;4.474;2024-02-26T13:20:11;5.30;99.90
13898;DHT22;7019;50.766;4.474;2024-02-26T13:22:38;5.30;99.90
13898;DHT22;7019;50.766;4.474;2024-02-26T13:25:07;5.30;99.90
13898;DHT22;7019;50.766;4.474;2024-02-26T13:27:35;5.30;99.90
13898;DHT22;7019;50.766;4.474;2024-02-26T13:30:04;5.30;99.90
13898;DHT22;7019;50.766;4.474;2024-02-26T13:32:33;5.30;99.90
13898;DHT22;7019;50.766;4.474;2024-02-26T13:35:05;5.30;99.90
13898;DHT22;7019;50.766;4.474;2024-02-26T13:37:33;5.30;99.90
13898;DHT22;7019;50.766;4.474;2024-02-26T13:40:00;5.30;99.90
13898;DHT22;7019;50.766;4.474;2024-02-26T13:42:31;5.30;99.90
13898;DHT22;7019;50.766;4.474;2024-02-26T13:44:58;5.30;99.90
13898;DHT22;7019;50.766;4.474;2024-02-26T13:47:25;5.30;99.90
13898;DHT22;7019;50.766;4.474;2024-02-26T13:49:52;5.30;99.90
13898;DHT22;7019;50.766;4.474;2024-02-26T13:52:19;5.30;99.90
13898;DHT22;7019;50.766;4.474;2024-02-26T13:54:46;5.30;99.90
13898;DHT22;7019;50.766;4.474;2024-02-26T13:57:13;5.30;99.90
13898;DHT22;7019;50.766;4.474;2024-02-26T13:59:42;5.30;99.90
13898;DHT22;7019;50.766;4.474;2024-02-26T14:02:09;5.40;99.90
13898;DHT22;7019;50.766;4.474;2024-02-26T14:04:37;5.30;99.90
13898;DHT22;7019;50.766;4.474;2024-02-26T14:07:04;5.30;99.90
13898;DHT22;7019;50.766;4.474;2024-02-26T14:09:32;5.30;99.90
13898;DHT22;7019;50.766;4.474;2024-02-26T14:12:00;5.30;99.90
13898;DHT22;7019;50.766;4.474;2024-02-26T14:14:27;5.30;99.90
13898;DHT22;7019;50.766;4.474;2024-02-26T14:16:56;5.30;99.90
13898;DHT22;7019;50.766;4.474;2024-02-26T14:19:23;5.30;99.90
13898;DHT22;7019;50.766;4.474;2024-02-26T14:21:50;5.30;99.90
13898;DHT22;7019;50.766;4.474;2024-02-26T14:24:17;5.30;99.90
13898;DHT22;7019;50.766;4.474;2024-02-26T14:26:44;5.30;99.90
13898;DHT22;7019;50.766;4.474;2024-02-26T14:29:11;5.30;99.90
13898;DHT22;7019;50.766;4.474;2024-02-26T14:31:38;5.30;99.90
13898;DHT22;7019;50.766;4.474;2024-02-26T14:34:07;5.20;99.90
13898;DHT22;7019;50.766;4.474;2024-02-26T14:36:35;5.20;99.90
13898;DHT22;7019;50.766;4.474;2024-02-26T14:39:02;5.30;99.90
13898;DHT22;7019;50.766;4.474;2024-02-26T14:41:29;5.20;99.90
13898;DHT22;7019;50.766;4.474;2024-02-26T14:43:56;5.30;99.90
13898;DHT22;7019;50.766;4.474;2024-02-26T14:46:23;5.20;99.90
13898;DHT22;7019;50.766;4.474;2024-02-26T14:48:50;5.20;99.90
13898;DHT22;7019;50.766;4.474;2024-02-26T14:51:19;5.30;99.90
13898;DHT22;7019;50.766;4.474;2024-02-26T14:53:46;5.20;99.90
13898;DHT22;7019;50.766;4.474;2024-02-26T14:56:13;5.20;99.90
13898;DHT22;7019;50.766;4.474;2024-02-26T14:58:40;5.20;99.90
13898;DHT22;7019;50.766;4.474;2024-02-26T15:01:07;5.20;99.90
13898;DHT22;7019;50.766;4.474;2024-02-26T15:03:34;5.20;99.90
13898;DHT22;7019;50.766;4.474;2024-02-26T15:06:01;5.20;99.90
13898;DHT22;7019;50.766;4.474;2024-02-26T15:08:30;5.20;99.90
13898;DHT22;7019;50.766;4.474;2024-02-26T15:10:58;5.20;99.90
13898;DHT22;7019;50.766;4.474;2024-02-26T15:13:25;5.20;99.90
13898;DHT22;7019;50.766;4.474;2024-02-26T15:15:52;5.20;99.90
13898;DHT22;7019;50.766;4.474;2024-02-26T15:18:19;5.20;99.90
13898;DHT22;7019;50.766;4.474;2024-02-26T15:20:46;5.20;99.90
13898;DHT22;7019;50.766;4.474;2024-02-26T15:23:13;5.20;99.90
13898;DHT22;7019;50.766;4.474;2024-02-26T15:25:42;5.20;99.90
13898;DHT22;7019;50.766;4.474;2024-02-26T15:28:09;5.20;99.90
13898;DHT22;7019;50.766;4.474;2024-02-26T15:30:39;5.20;99.90
13898;DHT22;7019;50.766;4.474;2024-02-26T15:33:06;5.30;99.90
13898;DHT22;7019;50.766;4.474;2024-02-26T15:35:34;5.20;99.90
13898;DHT22;7019;50.766;4.474;2024-02-26T15:38:03;5.20;99.90
13898;DHT22;7019;50.766;4.474;2024-02-26T15:40:30;5.20;99.90
13898;DHT22;7019;50.766;4.474;2024-02-26T15:42:58;5.20;99.90
13898;DHT22;7019;50.766;4.474;2024-02-26T15:45:25;5.20;99.90
13898;DHT22;7019;50.766;4.474;2024-02-26T15:47:52;5.20;99.90
13898;DHT22;7019;50.766;4.474;2024-02-26T15:50:19;5.20;99.90
13898;DHT22;7019;50.766;4.474;2024-02-26T15:52:46;5.20;99.90
13898;DHT22;7019;50.766;4.474;2024-02-26T15:55:13;5.30;99.90
13898;DHT22;7019;50.766;4.474;2024-02-26T15:57:41;5.20;99.90
13898;DHT22;7019;50.766;4.474;2024-02-26T16:00:11;5.20;99.90
13898;DHT22;7019;50.766;4.474;2024-02-26T16:02:38;5.30;99.90
13898;DHT22;7019;50.766;4.474;2024-02-26T16:05:07;5.20;99.90
13898;DHT22;7019;50.766;4.474;2024-02-26T16:07:41;5.20;99.90